sensor_id;sensor_type;location;lat;lon;timestamp;P1;durP1;ratioP1;P2;durP2;ratioP2
36575;SDS011;45700;50.930;5.168;2023-05-14T00:00:06;11.45;;;6.47;;
36575;SDS011;45700;50.930;5.168;2023-05-14T00:04:07;7.78;;;5.60;;
36575;SDS011;45700;50.930;5.168;2023-05-14T00:08:08;11.85;;;6.10;;
36575;SDS011;45700;50.930;5.168;2023-05-14T00:12:09;9.70;;;5.95;;
36575;SDS011;45700;50.930;5.168;2023-05-14T00:16:10;11.35;;;6.40;;
36575;SDS011;45700;50.930;5.168;2023-05-14T00:20:11;10.27;;;5.90;;
36575;SDS011;45700;50.930;5.168;2023-05-14T00:24:12;9.10;;;6.63;;
36575;SDS011;45700;50.930;5.168;2023-05-14T00:28:13;12.65;;;6.57;;
36575;SDS011;45700;50.930;5.168;2023-05-14T00:32:14;10.52;;;6.05;;
36575;SDS011;45700;50.930;5.168;2023-05-14T00:36:15;10.32;;;6.00;;
36575;SDS011;45700;50.930;5.168;2023-05-14T00:40:16;10.27;;;6.85;;
36575;SDS011;45700;50.930;5.168;2023-05-14T00:44:17;11.95;;;6.10;;
36575;SDS011;45700;50.930;5.168;2023-05-14T00:48:19;11.10;;;6.75;;
36575;SDS011;45700;50.930;5.168;2023-05-14T00:52:20;13.23;;;7.50;;
36575;SDS011;45700;50.930;5.168;2023-05-14T00:56:21;13.13;;;7.75;;
36575;SDS011;45700;50.930;5.168;2023-05-14T01:00:22;11.38;;;7.00;;
36575;SDS011;45700;50.930;5.168;2023-05-14T01:04:23;13.43;;;7.80;;
36575;SDS011;45700;50.930;5.168;2023-05-14T01:16:54;12.48;;;7.72;;
36575;SDS011;45700;50.930;5.168;2023-05-14T01:20:56;15.07;;;7.93;;
36575;SDS011;45700;50.930;5.168;2023-05-14T01:24:57;16.85;;;7.82;;
36575;SDS011;45700;50.930;5.168;2023-05-14T01:29:08;15.43;;;8.35;;
36575;SDS011;45700;50.930;5.168;2023-05-14T01:33:12;15.70;;;9.30;;
36575;SDS011;45700;50.930;5.168;2023-05-14T01:37:14;14.95;;;9.18;;
36575;SDS011;45700;50.930;5.168;2023-05-14T01:41:15;15.50;;;8.90;;
36575;SDS011;45700;50.930;5.168;2023-05-14T01:45:18;14.15;;;8.55;;
36575;SDS011;45700;50.930;5.168;2023-05-14T01:49:19;18.73;;;8.93;;
36575;SDS011;45700;50.930;5.168;2023-05-14T01:53:20;20.15;;;9.93;;
36575;SDS011;45700;50.930;5.168;2023-05-14T01:57:21;19.63;;;10.13;;
36575;SDS011;45700;50.930;5.168;2023-05-14T02:01:22;20.10;;;10.82;;
36575;SDS011;45700;50.930;5.168;2023-05-14T02:05:25;16.58;;;10.32;;
36575;SDS011;45700;50.930;5.168;2023-05-14T02:09:26;17.98;;;9.43;;
36575;SDS011;45700;50.930;5.168;2023-05-14T02:13:27;20.85;;;10.73;;
36575;SDS011;45700;50.930;5.168;2023-05-14T02:17:27;19.35;;;10.82;;
36575;SDS011;45700;50.930;5.168;2023-05-14T02:21:28;22.08;;;11.07;;
36575;SDS011;45700;50.930;5.168;2023-05-14T02:25:30;25.08;;;12.05;;
36575;SDS011;45700;50.930;5.168;2023-05-14T02:29:31;25.08;;;12.65;;
36575;SDS011;45700;50.930;5.168;2023-05-14T02:33:32;26.58;;;12.57;;
36575;SDS011;45700;50.930;5.168;2023-05-14T02:37:33;22.50;;;12.07;;
36575;SDS011;45700;50.930;5.168;2023-05-14T02:41:34;25.77;;;13.50;;
36575;SDS011;45700;50.930;5.168;2023-05-14T02:45:35;32.60;;;15.00;;
36575;SDS011;45700;50.930;5.168;2023-05-14T02:49:36;27.77;;;13.57;;
36575;SDS011;45700;50.930;5.168;2023-05-14T02:53:37;33.55;;;14.85;;
36575;SDS011;45700;50.930;5.168;2023-05-14T02:57:38;26.75;;;14.82;;
36575;SDS011;45700;50.930;5.168;2023-05-14T03:01:39;32.08;;;15.02;;
36575;SDS011;45700;50.930;5.168;2023-05-14T03:05:40;26.77;;;14.02;;
36575;SDS011;45700;50.930;5.168;2023-05-14T03:09:41;31.20;;;14.25;;
36575;SDS011;45700;50.930;5.168;2023-05-14T03:13:43;29.85;;;14.43;;
36575;SDS011;45700;50.930;5.168;2023-05-14T03:17:44;32.25;;;16.13;;
36575;SDS011;45700;50.930;5.168;2023-05-14T03:21:45;36.53;;;16.20;;
36575;SDS011;45700;50.930;5.168;2023-05-14T03:25:46;32.83;;;15.95;;
36575;SDS011;45700;50.930;5.168;2023-05-14T03:29:47;27.83;;;14.63;;
36575;SDS011;45700;50.930;5.168;2023-05-14T03:33:48;33.35;;;16.10;;
36575;SDS011;45700;50.930;5.168;2023-05-14T03:37:49;30.75;;;15.85;;
36575;SDS011;45700;50.930;5.168;2023-05-14T03:41:51;38.55;;;17.48;;
36575;SDS011;45700;50.930;5.168;2023-05-14T03:45:52;36.60;;;17.42;;
36575;SDS011;45700;50.930;5.168;2023-05-14T03:49:54;41.97;;;18.35;;
36575;SDS011;45700;50.930;5.168;2023-05-14T03:53:55;35.30;;;17.48;;
36575;SDS011;45700;50.930;5.168;2023-05-14T03:57:59;44.53;;;19.80;;
36575;SDS011;45700;50.930;5.168;2023-05-14T04:02:01;44.13;;;20.77;;
36575;SDS011;45700;50.930;5.168;2023-05-14T04:06:02;43.85;;;19.42;;
36575;SDS011;45700;50.930;5.168;2023-05-14T04:10:03;45.22;;;20.60;;
36575;SDS011;45700;50.930;5.168;2023-05-14T04:14:04;41.67;;;19.38;;
36575;SDS011;45700;50.930;5.168;2023-05-14T04:18:05;42.33;;;19.58;;
36575;SDS011;45700;50.930;5.168;2023-05-14T04:22:06;39.10;;;19.50;;
36575;SDS011;45700;50.930;5.168;2023-05-14T04:26:07;46.60;;;20.98;;
36575;SDS011;45700;50.930;5.168;2023-05-14T04:30:08;48.83;;;22.23;;
36575;SDS011;45700;50.930;5.168;2023-05-14T04:34:10;51.30;;;22.50;;
36575;SDS011;45700;50.930;5.168;2023-05-14T04:38:11;49.65;;;22.08;;
36575;SDS011;45700;50.930;5.168;2023-05-14T04:42:13;49.88;;;21.92;;
36575;SDS011;45700;50.930;5.168;2023-05-14T04:46:14;52.38;;;21.92;;
36575;SDS011;45700;50.930;5.168;2023-05-14T04:50:15;48.67;;;22.17;;
36575;SDS011;45700;50.930;5.168;2023-05-14T04:54:16;54.83;;;23.05;;
36575;SDS011;45700;50.930;5.168;2023-05-14T04:58:17;56.47;;;23.70;;
36575;SDS011;45700;50.930;5.168;2023-05-14T05:02:18;49.95;;;23.02;;
36575;SDS011;45700;50.930;5.168;2023-05-14T05:06:19;55.33;;;24.48;;
36575;SDS011;45700;50.930;5.168;2023-05-14T05:10:20;50.88;;;22.90;;
36575;SDS011;45700;50.930;5.168;2023-05-14T05:14:21;57.97;;;23.73;;
36575;SDS011;45700;50.930;5.168;2023-05-14T05:18:22;51.75;;;22.30;;
36575;SDS011;45700;50.930;5.168;2023-05-14T05:22:23;55.60;;;24.48;;
36575;SDS011;45700;50.930;5.168;2023-05-14T05:26:25;61.85;;;25.35;;
36575;SDS011;45700;50.930;5.168;2023-05-14T05:30:27;55.78;;;25.15;;
36575;SDS011;45700;50.930;5.168;2023-05-14T05:34:29;59.05;;;23.92;;
36575;SDS011;45700;50.930;5.168;2023-05-14T05:38:30;55.28;;;24.10;;
36575;SDS011;45700;50.930;5.168;2023-05-14T05:42:31;55.30;;;24.15;;
36575;SDS011;45700;50.930;5.168;2023-05-14T05:46:32;52.47;;;23.83;;
36575;SDS011;45700;50.930;5.168;2023-05-14T05:50:33;53.28;;;23.27;;
36575;SDS011;45700;50.930;5.168;2023-05-14T05:54:34;51.88;;;23.33;;
36575;SDS011;45700;50.930;5.168;2023-05-14T05:58:35;54.90;;;23.10;;
36575;SDS011;45700;50.930;5.168;2023-05-14T06:02:36;55.20;;;22.55;;
36575;SDS011;45700;50.930;5.168;2023-05-14T06:06:37;50.17;;;22.05;;
36575;SDS011;45700;50.930;5.168;2023-05-14T06:10:38;53.03;;;23.27;;
36575;SDS011;45700;50.930;5.168;2023-05-14T06:14:39;49.95;;;22.38;;
36575;SDS011;45700;50.930;5.168;2023-05-14T06:18:40;48.78;;;22.52;;
36575;SDS011;45700;50.930;5.168;2023-05-14T06:22:41;49.00;;;21.45;;
36575;SDS011;45700;50.930;5.168;2023-05-14T06:26:43;49.05;;;21.10;;
36575;SDS011;45700;50.930;5.168;2023-05-14T06:30:43;46.17;;;20.85;;
36575;SDS011;45700;50.930;5.168;2023-05-14T06:34:44;46.38;;;21.08;;
36575;SDS011;45700;50.930;5.168;2023-05-14T06:38:45;44.97;;;20.05;;
36575;SDS011;45700;50.930;5.168;2023-05-14T06:42:46;46.58;;;20.55;;
36575;SDS011;45700;50.930;5.168;2023-05-14T06:46:47;44.70;;;19.85;;
36575;SDS011;45700;50.930;5.168;2023-05-14T06:50:48;45.28;;;21.00;;
36575;SDS011;45700;50.930;5.168;2023-05-14T06:54:49;48.92;;;20.52;;
36575;SDS011;45700;50.930;5.168;2023-05-14T06:58:50;45.38;;;19.58;;
36575;SDS011;45700;50.930;5.168;2023-05-14T07:02:51;44.58;;;19.98;;
36575;SDS011;45700;50.930;5.168;2023-05-14T07:06:52;40.20;;;19.40;;
36575;SDS011;45700;50.930;5.168;2023-05-14T07:10:53;42.17;;;19.58;;
36575;SDS011;45700;50.930;5.168;2023-05-14T07:14:56;44.50;;;19.75;;
36575;SDS011;45700;50.930;5.168;2023-05-14T07:18:57;42.40;;;19.95;;
36575;SDS011;45700;50.930;5.168;2023-05-14T07:22:58;47.63;;;19.67;;
36575;SDS011;45700;50.930;5.168;2023-05-14T07:26:59;41.95;;;18.77;;
36575;SDS011;45700;50.930;5.168;2023-05-14T07:31:00;40.30;;;18.42;;
36575;SDS011;45700;50.930;5.168;2023-05-14T07:35:04;39.03;;;17.67;;
36575;SDS011;45700;50.930;5.168;2023-05-14T07:39:05;36.85;;;17.13;;
36575;SDS011;45700;50.930;5.168;2023-05-14T07:43:06;37.45;;;16.77;;
36575;SDS011;45700;50.930;5.168;2023-05-14T07:47:07;34.70;;;15.60;;
36575;SDS011;45700;50.930;5.168;2023-05-14T07:51:08;37.22;;;17.13;;
36575;SDS011;45700;50.930;5.168;2023-05-14T07:55:11;35.72;;;16.15;;
36575;SDS011;45700;50.930;5.168;2023-05-14T07:59:12;32.70;;;16.33;;
36575;SDS011;45700;50.930;5.168;2023-05-14T08:03:13;33.17;;;15.40;;
36575;SDS011;45700;50.930;5.168;2023-05-14T08:07:14;40.20;;;15.80;;
36575;SDS011;45700;50.930;5.168;2023-05-14T08:11:15;38.70;;;15.57;;
36575;SDS011;45700;50.930;5.168;2023-05-14T08:15:16;37.25;;;17.13;;
36575;SDS011;45700;50.930;5.168;2023-05-14T08:19:17;31.83;;;15.15;;
36575;SDS011;45700;50.930;5.168;2023-05-14T08:23:18;30.95;;;15.50;;
36575;SDS011;45700;50.930;5.168;2023-05-14T08:27:19;29.33;;;15.07;;
36575;SDS011;45700;50.930;5.168;2023-05-14T08:31:21;29.25;;;15.18;;
36575;SDS011;45700;50.930;5.168;2023-05-14T08:35:22;33.63;;;15.50;;
36575;SDS011;45700;50.930;5.168;2023-05-14T08:39:23;29.23;;;14.95;;
36575;SDS011;45700;50.930;5.168;2023-05-14T08:43:25;29.73;;;15.05;;
36575;SDS011;45700;50.930;5.168;2023-05-14T08:47:27;32.63;;;16.15;;
36575;SDS011;45700;50.930;5.168;2023-05-14T08:51:31;30.20;;;15.68;;
36575;SDS011;45700;50.930;5.168;2023-05-14T08:55:32;33.67;;;16.10;;
36575;SDS011;45700;50.930;5.168;2023-05-14T08:59:34;32.65;;;16.20;;
36575;SDS011;45700;50.930;5.168;2023-05-14T09:03:35;34.38;;;15.30;;
36575;SDS011;45700;50.930;5.168;2023-05-14T09:07:36;29.55;;;14.02;;
36575;SDS011;45700;50.930;5.168;2023-05-14T09:11:40;30.63;;;14.38;;
36575;SDS011;45700;50.930;5.168;2023-05-14T09:15:42;23.52;;;13.30;;
36575;SDS011;45700;50.930;5.168;2023-05-14T09:19:43;27.42;;;14.10;;
36575;SDS011;45700;50.930;5.168;2023-05-14T09:23:47;25.13;;;12.75;;
36575;SDS011;45700;50.930;5.168;2023-05-14T09:27:53;26.33;;;13.73;;
36575;SDS011;45700;50.930;5.168;2023-05-14T09:31:55;28.00;;;14.23;;
36575;SDS011;45700;50.930;5.168;2023-05-14T09:35:59;28.88;;;14.65;;
36575;SDS011;45700;50.930;5.168;2023-05-14T09:40:04;26.10;;;13.65;;
36575;SDS011;45700;50.930;5.168;2023-05-14T09:44:05;26.90;;;13.55;;
36575;SDS011;45700;50.930;5.168;2023-05-14T09:48:07;28.13;;;13.95;;
36575;SDS011;45700;50.930;5.168;2023-05-14T09:52:08;31.52;;;14.82;;
36575;SDS011;45700;50.930;5.168;2023-05-14T09:56:09;27.92;;;14.48;;
36575;SDS011;45700;50.930;5.168;2023-05-14T10:00:10;29.92;;;14.23;;
36575;SDS011;45700;50.930;5.168;2023-05-14T10:04:11;29.23;;;14.50;;
36575;SDS011;45700;50.930;5.168;2023-05-14T10:08:18;26.60;;;14.05;;
36575;SDS011;45700;50.930;5.168;2023-05-14T10:12:21;27.13;;;14.23;;
36575;SDS011;45700;50.930;5.168;2023-05-14T10:16:32;24.70;;;12.98;;
36575;SDS011;45700;50.930;5.168;2023-05-14T10:20:34;22.85;;;12.43;;
36575;SDS011;45700;50.930;5.168;2023-05-14T10:24:36;24.70;;;13.15;;
36575;SDS011;45700;50.930;5.168;2023-05-14T10:28:38;26.40;;;12.98;;
36575;SDS011;45700;50.930;5.168;2023-05-14T10:32:39;23.05;;;12.40;;
36575;SDS011;45700;50.930;5.168;2023-05-14T10:36:42;24.95;;;13.52;;
36575;SDS011;45700;50.930;5.168;2023-05-14T10:40:43;22.08;;;12.23;;
36575;SDS011;45700;50.930;5.168;2023-05-14T10:48:54;25.50;;;13.02;;
36575;SDS011;45700;50.930;5.168;2023-05-14T10:52:56;24.10;;;12.82;;
36575;SDS011;45700;50.930;5.168;2023-05-14T10:56:57;25.52;;;11.95;;
36575;SDS011;45700;50.930;5.168;2023-05-14T11:00:58;21.58;;;11.82;;
36575;SDS011;45700;50.930;5.168;2023-05-14T11:05:01;17.55;;;10.27;;
